Time;durP1;ratioP1;P1;durP2;ratioP2;P2;SDS_P1;SDS_P2;PMS_P1;PMS_P2;Temp;Humidity;BMP_temperature;BMP_pressure;BME280_temperature;BME280_humidity;BME280_pressure;Samples;Min_cycle;Max_cycle;Signal;HPM_P1;HPM_P2
2021/08/11 00:00:35;;;;;;;14.52;6.35;;;;;;;13.71;92.70;101993.34;4981803;28;20089;-72
2021/08/11 00:03:03;;;;;;;11.93;5.35;;;;;;;13.71;91.52;101990.66;4983830;28;20062;-72
2021/08/11 00:05:32;;;;;;;12.88;6.57;;;;;;;13.71;92.27;101990.66;4979436;28;20075;-72
2021/08/11 00:08:00;;;;;;;13.43;6.25;;;;;;;13.67;92.09;101991.66;4982761;28;20517;-72
2021/08/11 00:10:28;;;;;;;13.65;6.13;;;;;;;13.71;92.95;101987.97;4979705;28;20066;-78
2021/08/11 00:12:55;;;;;;;10.43;5.05;;;;;;;13.69;91.99;101983.56;4981571;28;20066;-77
2021/08/11 00:15:23;;;;;;;12.93;5.80;;;;;;;13.69;92.51;101989.81;4981091;28;20063;-78
2021/08/11 00:17:51;;;;;;;11.38;5.25;;;;;;;13.67;92.35;101990.78;4981304;28;20572;-77
2021/08/11 00:20:19;;;;;;;13.38;5.85;;;;;;;13.60;93.12;101988.28;4982553;28;20445;-77
2021/08/11 00:22:48;;;;;;;12.10;5.97;;;;;;;13.56;93.56;101989.25;4981941;28;20089;-78
2021/08/11 00:25:16;;;;;;;12.35;6.28;;;;;;;13.55;94.42;101986.63;4980813;28;20062;-78
2021/08/11 00:27:44;;;;;;;13.18;6.30;;;;;;;13.50;93.20;101986.75;4982209;28;20097;-78
2021/08/11 00:30:13;;;;;;;14.30;6.70;;;;;;;13.48;93.23;101985.03;4982809;28;20377;-77
2021/08/11 00:32:41;;;;;;;14.80;6.57;;;;;;;13.46;93.09;101979.69;4980665;28;20462;-78
2021/08/11 00:35:09;;;;;;;17.50;7.70;;;;;;;13.41;93.66;101985.16;4984228;28;20066;-77
2021/08/11 00:37:36;;;;;;;14.77;6.82;;;;;;;13.39;93.62;101981.66;4981327;28;20078;-78
2021/08/11 00:40:07;;;;;;;15.13;6.75;;;;;;;13.37;93.58;101986.19;4981466;28;20108;-78
2021/08/11 00:42:35;;;;;;;13.25;6.60;;;;;;;13.32;93.70;101977.38;4979230;28;20105;-72
2021/08/11 00:45:04;;;;;;;15.32;6.88;;;;;;;13.32;94.62;101979.19;4982250;28;20066;-72
2021/08/11 00:47:34;;;;;;;11.70;5.88;;;;;;;13.28;93.44;101983.72;4977297;28;20070;-72
2021/08/11 00:50:02;;;;;;;14.18;5.85;;;;;;;13.27;94.50;101977.44;4979685;28;20077;-71
2021/08/11 00:52:30;;;;;;;16.42;6.57;;;;;;;13.27;95.16;101985.50;4982117;28;20450;-71
2021/08/11 00:54:59;;;;;;;14.60;6.38;;;;;;;13.33;96.32;101980.94;4981276;28;20450;-71
2021/08/11 00:57:28;;;;;;;14.93;8.32;;;;;;;13.35;97.62;101988.03;4981729;28;20113;-71
2021/08/11 00:59:57;;;;;;;18.00;7.80;;;;;;;13.40;98.08;101987.88;4980978;28;20591;-71
2021/08/11 01:02:27;;;;;;;14.88;7.40;;;;;;;13.43;98.12;101985.13;4980308;28;20452;-71
2021/08/11 01:04:59;;;;;;;16.55;8.40;;;;;;;13.45;98.60;101986.88;4983572;28;20062;-71
2021/08/11 01:07:28;;;;;;;16.15;7.38;;;;;;;13.43;98.11;101985.13;4978532;28;20437;-71
2021/08/11 01:09:57;;;;;;;20.52;9.32;;;;;;;13.59;100.00;101981.13;4982486;28;20054;-71
2021/08/11 01:12:26;;;;;;;21.35;9.90;;;;;;;13.60;100.00;101985.59;4979157;28;20140;-71
2021/08/11 01:14:56;;;;;;;21.35;9.20;;;;;;;13.57;99.50;101980.31;4983819;28;20395;-71
2021/08/11 01:17:26;;;;;;;21.00;10.68;;;;;;;13.73;100.00;101980.75;4978160;28;20063;-71
2021/08/11 01:19:58;;;;;;;23.58;11.00;;;;;;;13.72;100.00;101978.13;4979580;28;20132;-71
2021/08/11 01:22:30;;;;;;;21.48;10.57;;;;;;;13.79;100.00;101972.56;4984366;28;20078;-71
2021/08/11 01:25:06;;;;;;;27.65;11.75;;;;;;;13.93;100.00;101968.63;4979127;28;20062;-71
2021/08/11 01:27:56;;;;;;;21.65;10.55;;;;;;;13.91;100.00;101965.97;4982454;28;20062;-71
2021/08/11 01:30:35;;;;;;;26.42;11.57;;;;;;;13.95;100.00;101964.09;4975976;28;20077;-71
2021/08/11 01:33:25;;;;;;;25.40;10.75;;;;;;;13.94;100.00;101971.22;4979572;28;20372;-71
2021/08/11 01:35:58;;;;;;;22.48;10.73;;;;;;;13.92;100.00;101969.53;4980064;28;20129;-71
2021/08/11 01:38:30;;;;;;;19.95;10.10;;;;;;;13.94;100.00;101978.41;4981846;28;20101;-71
2021/08/11 01:41:02;;;;;;;23.30;11.13;;;;;;;14.04;100.00;101979.91;4983370;28;20069;-71
2021/08/11 01:43:37;;;;;;;20.77;10.07;;;;;;;14.01;100.00;101974.63;4978551;28;20054;-72
2021/08/11 01:46:07;;;;;;;21.23;10.88;;;;;;;13.94;100.00;101973.91;4982987;28;20070;-71
2021/08/11 01:48:37;;;;;;;21.70;10.95;;;;;;;13.92;100.00;101975.75;4979672;28;20183;-71
2021/08/11 01:51:07;;;;;;;20.95;11.10;;;;;;;13.97;100.00;101973.84;4979595;28;20094;-71
2021/08/11 01:53:35;;;;;;;25.05;11.23;;;;;;;13.94;100.00;101981.09;4979608;28;20085;-71
2021/08/11 01:56:04;;;;;;;18.33;9.52;;;;;;;13.86;100.00;101980.41;4980812;28;20062;-71
2021/08/11 01:58:32;;;;;;;24.40;10.02;;;;;;;13.80;100.00;101979.66;4982120;28;20330;-71
2021/08/11 02:01:02;;;;;;;19.33;9.35;;;;;;;13.79;100.00;101991.34;4977580;28;20082;-71
2021/08/11 02:03:31;;;;;;;19.73;9.65;;;;;;;13.81;100.00;101986.81;4979783;28;20062;-71
2021/08/11 02:06:01;;;;;;;22.20;10.32;;;;;;;13.76;100.00;101986.06;4980962;28;20074;-73
2021/08/11 02:08:30;;;;;;;21.00;9.95;;;;;;;13.80;100.00;101987.72;4979043;28;20185;-72
2021/08/11 02:11:00;;;;;;;20.13;9.32;;;;;;;13.72;100.00;101992.41;4979683;28;20090;-78
2021/08/11 02:13:28;;;;;;;19.05;9.45;;;;;;;13.79;100.00;101983.28;4979394;28;20482;-77
2021/08/11 02:15:55;;;;;;;19.45;9.30;;;;;;;13.78;100.00;101984.19;4980312;28;20080;-79
2021/08/11 02:18:23;;;;;;;17.70;9.25;;;;;;;13.76;100.00;101983.38;4981578;28;20101;-77
2021/08/11 02:20:51;;;;;;;21.15;9.77;;;;;;;13.72;100.00;101981.66;4979065;28;20066;-77
2021/08/11 02:23:20;;;;;;;18.48;9.15;;;;;;;13.69;100.00;101987.16;4980956;28;20093;-77
2021/08/11 02:25:55;;;;;;;21.38;9.95;;;;;;;13.67;100.00;101983.59;4981896;28;20066;-77
2021/08/11 02:28:28;;;;;;;21.17;8.98;;;;;;;13.64;100.00;101979.22;4982225;28;20062;-78
2021/08/11 02:31:01;;;;;;;19.83;8.55;;;;;;;13.58;100.00;101978.50;4977886;28;20077;-71
2021/08/11 02:33:38;;;;;;;22.77;8.85;;;;;;;13.56;100.00;101969.63;4980933;28;20413;-72
2021/08/11 02:36:12;;;;;;;15.75;8.35;;;;;;;13.51;100.00;101972.41;4981082;28;20077;-71
2021/08/11 02:38:42;;;;;;;18.98;8.77;;;;;;;13.51;100.00;101976.91;4980151;28;20158;-72
2021/08/11 02:41:14;;;;;;;16.42;8.95;;;;;;;13.55;100.00;101975.88;4982090;28;20066;-72
2021/08/11 02:43:48;;;;;;;23.35;9.30;;;;;;;13.52;100.00;101975.97;4978751;28;20149;-71
2021/08/11 02:46:19;;;;;;;20.65;9.68;;;;;;;13.49;100.00;101974.25;4981637;28;20280;-72
2021/08/11 02:48:53;;;;;;;20.73;9.63;;;;;;;13.54;100.00;101976.81;4978852;28;20066;-71
2021/08/11 02:51:25;;;;;;;18.73;9.10;;;;;;;13.50;100.00;101972.44;4979516;28;20073;-71
2021/08/11 02:53:55;;;;;;;21.48;10.18;;;;;;;13.54;100.00;101974.16;4978221;28;20457;-78
2021/08/11 02:56:23;;;;;;;20.05;9.80;;;;;;;13.55;100.00;101971.44;4979231;28;20069;-77
2021/08/11 02:58:52;;;;;;;19.85;8.77;;;;;;;13.55;100.00;101976.78;4981173;28;20066;-76
2021/08/11 03:01:22;;;;;;;22.67;8.93;;;;;;;13.51;100.00;101974.22;4979011;28;20101;-76
2021/08/11 03:03:50;;;;;;;21.38;9.63;;;;;;;13.55;100.00;101968.75;4978349;28;20303;-77
2021/08/11 03:06:18;;;;;;;23.83;10.25;;;;;;;13.59;100.00;101974.91;4980582;28;20058;-77
2021/08/11 03:08:46;;;;;;;18.65;8.48;;;;;;;13.57;100.00;101966.91;4978871;28;20455;-77
2021/08/11 03:11:16;;;;;;;20.77;10.15;;;;;;;13.65;100.00;101964.00;4979491;28;20059;-77
2021/08/11 03:13:45;;;;;;;23.45;11.27;;;;;;;13.74;100.00;101961.09;4984766;28;20066;-78
2021/08/11 03:16:14;;;;;;;23.02;11.18;;;;;;;13.81;100.00;101965.34;4984787;28;20496;-77
2021/08/11 03:18:42;;;;;;;24.98;11.55;;;;;;;13.85;100.00;101966.13;4984932;28;20100;-78
2021/08/11 03:21:10;;;;;;;23.73;10.73;;;;;;;13.78;100.00;101968.09;4984238;28;20061;-77
2021/08/11 03:23:38;;;;;;;22.92;12.02;;;;;;;13.80;100.00;101966.25;4982289;28;20093;-77
2021/08/11 03:26:06;;;;;;;28.35;12.20;;;;;;;13.86;100.00;101962.53;4983841;28;20077;-78
2021/08/11 03:28:35;;;;;;;30.30;11.50;;;;;;;13.83;100.00;101966.19;4984243;28;20101;-76
2021/08/11 03:31:02;;;;;;;26.65;11.30;;;;;;;13.77;100.00;101966.38;4982109;28;20062;-76
2021/08/11 03:33:31;;;;;;;25.75;10.70;;;;;;;13.73;100.00;101967.34;4983803;28;20101;-77
2021/08/11 03:35:58;;;;;;;24.90;11.23;;;;;;;13.72;100.00;101972.75;4985176;28;21032;-77
2021/08/11 03:38:26;;;;;;;26.13;11.32;;;;;;;13.70;100.00;101983.53;4983666;28;20365;-77
2021/08/11 03:40:54;;;;;;;32.40;12.70;;;;;;;13.79;100.00;101988.66;4983982;28;20131;-77
2021/08/11 03:43:21;;;;;;;30.52;12.57;;;;;;;13.77;100.00;101990.50;4982841;28;20074;-77
2021/08/11 03:45:51;;;;;;;25.95;11.73;;;;;;;13.69;100.00;101988.94;4983308;28;20116;-77
2021/08/11 03:48:18;;;;;;;27.52;11.20;;;;;;;13.67;100.00;101990.78;4982029;28;20161;-77
2021/08/11 03:50:46;;;;;;;40.70;17.88;;;;;;;13.64;100.00;101992.63;4982708;28;20046;-75
2021/08/11 03:53:14;;;;;;;27.80;12.45;;;;;;;13.60;100.00;101987.38;4982505;28;20105;-71
2021/08/11 03:55:42;;;;;;;23.17;12.05;;;;;;;13.53;100.00;101988.47;4982702;28;20125;-71
2021/08/11 03:58:10;;;;;;;26.92;12.05;;;;;;;13.52;100.00;101989.38;4982119;28;20066;-71
2021/08/11 04:00:38;;;;;;;26.70;12.00;;;;;;;13.50;100.00;101989.44;4981117;28;20485;-71
2021/08/11 04:03:07;;;;;;;25.98;10.75;;;;;;;13.44;100.00;101993.13;4983669;28;20062;-71
2021/08/11 04:05:35;;;;;;;21.35;11.55;;;;;;;13.41;100.00;101990.53;4981258;28;20094;-77
2021/08/11 04:08:04;;;;;;;31.42;14.48;;;;;;;13.40;100.00;101987.88;4981436;28;20062;-76
2021/08/11 04:10:31;;;;;;;40.30;16.35;;;;;;;13.43;100.00;101994.06;4982489;28;20157;-77
2021/08/11 04:12:59;;;;;;;33.38;13.50;;;;;;;13.39;100.00;101987.00;4982770;28;20073;-77
2021/08/11 04:15:27;;;;;;;28.50;13.43;;;;;;;13.38;100.00;101990.63;4984860;28;20058;-77
2021/08/11 04:17:55;;;;;;;29.48;12.77;;;;;;;13.38;100.00;101990.63;4981954;28;20336;-77
2021/08/11 04:20:24;;;;;;;25.77;12.10;;;;;;;13.42;100.00;101994.97;4983165;28;20050;-77
2021/08/11 04:22:52;;;;;;;27.35;12.25;;;;;;;13.44;100.00;101997.63;4980258;28;20072;-77
2021/08/11 04:25:21;;;;;;;26.67;11.73;;;;;;;13.42;100.00;102000.34;4980769;28;20149;-76
2021/08/11 04:27:49;;;;;;;35.25;13.95;;;;;;;13.43;100.00;102002.13;4982574;28;20049;-77
2021/08/11 04:30:17;;;;;;;31.77;13.52;;;;;;;13.46;100.00;101993.09;4980466;28;20074;-77
2021/08/11 04:32:44;;;;;;;29.77;11.88;;;;;;;13.43;100.00;101991.41;4983126;28;20437;-76
2021/08/11 04:35:13;;;;;;;28.80;12.75;;;;;;;13.48;100.00;101995.75;4980653;28;20065;-77
2021/08/11 04:37:42;;;;;;;31.00;13.52;;;;;;;13.41;100.00;101993.22;4983074;28;20335;-76
2021/08/11 04:40:11;;;;;;;26.45;12.68;;;;;;;13.44;100.00;101989.59;4981572;28;20050;-77
2021/08/11 04:42:40;;;;;;;24.70;11.35;;;;;;;13.43;100.00;101993.19;4982349;28;20047;-76
2021/08/11 04:45:09;;;;;;;23.83;11.88;;;;;;;13.45;100.00;101999.41;4980204;28;20161;-76
2021/08/11 04:47:36;;;;;;;27.50;12.45;;;;;;;13.51;100.00;101987.63;4981230;28;20074;-77
2021/08/11 04:50:05;;;;;;;27.92;12.18;;;;;;;13.56;100.00;101988.38;4981119;28;20061;-78
2021/08/11 04:52:36;;;;;;;31.15;13.63;;;;;;;13.68;100.00;101990.75;4981997;28;20142;-76
2021/08/11 04:55:06;;;;;;;28.83;12.07;;;;;;;13.63;100.00;101985.50;4980990;28;20070;-76
2021/08/11 04:57:34;;;;;;;30.35;12.93;;;;;;;13.67;100.00;101988.97;4983456;28;20152;-78
2021/08/11 05:00:02;;;;;;;26.35;12.75;;;;;;;13.74;100.00;101993.28;4979488;28;20087;-77
2021/08/11 05:02:30;;;;;;;27.63;11.80;;;;;;;13.77;100.00;101998.56;4981675;28;20058;-71
2021/08/11 05:04:58;;;;;;;25.15;11.95;;;;;;;13.82;100.00;102003.78;4981588;28;20070;-71
2021/08/11 05:07:26;;;;;;;26.20;12.77;;;;;;;13.93;100.00;102000.81;4979461;28;20112;-72
2021/08/11 05:09:54;;;;;;;23.70;11.30;;;;;;;14.02;100.00;102005.91;4985121;28;20080;-71
2021/08/11 05:12:24;;;;;;;28.40;12.43;;;;;;;14.10;100.00;102001.22;4977813;28;20066;-71
2021/08/11 05:14:52;;;;;;;24.23;11.52;;;;;;;14.17;100.00;102002.78;4979822;28;20062;-72
2021/08/11 05:17:22;;;;;;;27.92;12.90;;;;;;;14.26;100.00;102007.00;4981957;28;20409;-71
2021/08/11 05:19:50;;;;;;;23.02;11.13;;;;;;;14.37;100.00;102004.91;4979320;28;20069;-74
2021/08/11 05:22:19;;;;;;;27.38;13.70;;;;;;;14.54;100.00;102011.56;4981215;28;20399;-72
2021/08/11 05:24:48;;;;;;;24.98;12.25;;;;;;;14.66;100.00;102007.66;4978138;28;20528;-71
2021/08/11 05:27:17;;;;;;;25.27;12.73;;;;;;;14.74;100.00;102008.31;4981827;28;20062;-71
2021/08/11 05:29:47;;;;;;;29.67;13.75;;;;;;;14.94;100.00;102005.88;4977718;28;20404;-73
2021/08/11 05:32:15;;;;;;;32.80;13.18;;;;;;;15.04;100.00;102013.66;4980628;28;20070;-72
2021/08/11 05:34:43;;;;;;;30.50;12.13;;;;;;;15.10;100.00;102021.50;4979641;28;20307;-72
2021/08/11 05:37:11;;;;;;;33.38;14.95;;;;;;;15.08;100.00;102024.25;4978741;28;20116;-72
2021/08/11 05:39:40;;;;;;;28.52;13.77;;;;;;;15.05;99.95;102027.06;4981597;28;20062;-72
2021/08/11 05:42:08;;;;;;;29.58;15.15;;;;;;;15.03;100.00;102031.56;4980281;28;20066;-73
2021/08/11 05:44:36;;;;;;;28.77;15.30;;;;;;;15.18;99.77;102029.34;4979002;28;20344;-72
2021/08/11 05:47:07;;;;;;;29.10;13.88;;;;;;;15.49;98.72;102029.19;4980024;28;20053;-71
2021/08/11 05:49:36;;;;;;;30.65;13.73;;;;;;;15.81;97.61;102029.94;4978251;28;20070;-73
2021/08/11 05:52:04;;;;;;;33.13;14.73;;;;;;;16.07;96.77;102037.06;4981138;28;20066;-71
2021/08/11 05:54:32;;;;;;;28.70;13.60;;;;;;;16.20;95.90;102042.91;4979286;28;20058;-73
2021/08/11 05:57:01;;;;;;;25.83;13.77;;;;;;;16.16;94.94;102049.34;4979971;28;20101;-73
2021/08/11 05:59:29;;;;;;;29.45;13.52;;;;;;;16.28;93.95;102039.91;4978512;28;20436;-72
2021/08/11 06:01:57;;;;;;;29.50;14.98;;;;;;;16.24;94.02;102044.53;4978099;28;20079;-73
2021/08/11 06:04:28;;;;;;;30.60;14.40;;;;;;;16.25;93.80;102046.28;4980431;28;20142;-74
2021/08/11 06:06:55;;;;;;;26.30;13.70;;;;;;;16.52;93.54;102048.91;4980132;28;20068;-73
2021/08/11 06:09:24;;;;;;;34.35;14.52;;;;;;;16.53;92.42;102043.47;4978808;28;20089;-74
2021/08/11 06:11:51;;;;;;;29.83;13.85;;;;;;;16.64;92.39;102044.88;4983120;28;20062;-74
2021/08/11 06:14:19;;;;;;;31.80;15.30;;;;;;;16.78;91.84;102051.44;4979104;28;20070;-71
2021/08/11 06:16:47;;;;;;;29.90;13.35;;;;;;;17.03;91.09;102057.75;4979230;28;21048;-73
2021/08/11 06:19:15;;;;;;;26.42;13.93;;;;;;;17.04;90.02;102051.41;4980373;28;20069;-74
2021/08/11 06:21:44;;;;;;;28.92;13.05;;;;;;;17.43;90.16;102042.63;4980489;28;20129;-72
2021/08/11 06:24:12;;;;;;;23.80;12.77;;;;;;;17.72;88.30;102046.78;4979322;28;20461;-74
2021/08/11 06:26:40;;;;;;;24.15;13.38;;;;;;;17.78;87.11;102045.66;4980931;28;20093;-74
2021/08/11 06:29:08;;;;;;;24.55;13.63;;;;;;;17.78;87.55;102049.22;4980803;28;20058;-74
2021/08/11 06:31:36;;;;;;;31.58;14.10;;;;;;;17.75;86.84;102057.44;4977584;28;20057;-72
2021/08/11 06:34:04;;;;;;;28.17;13.57;;;;;;;17.92;85.73;102044.13;4981040;28;20058;-74
2021/08/11 06:36:32;;;;;;;34.08;12.52;;;;;;;17.98;86.85;102050.19;4977740;28;20066;-73
2021/08/11 06:39:01;;;;;;;27.15;14.00;;;;;;;18.42;85.59;102047.31;4976343;28;20066;-73
2021/08/11 06:41:29;;;;;;;24.90;12.52;;;;;;;18.55;85.03;102045.81;4981337;28;20144;-73
2021/08/11 06:43:56;;;;;;;23.48;12.27;;;;;;;18.89;83.67;102046.94;4979213;28;21040;-74
2021/08/11 06:46:24;;;;;;;29.08;12.68;;;;;;;19.07;82.23;102049.72;4978593;28;20046;-73
2021/08/11 06:48:53;;;;;;;27.13;12.60;;;;;;;19.11;82.47;102048.63;4985467;28;20062;-71
2021/08/11 06:51:21;;;;;;;24.08;12.43;;;;;;;18.71;81.58;102053.19;4984259;28;20068;-72
2021/08/11 06:53:48;;;;;;;28.17;14.07;;;;;;;18.58;82.58;102051.06;4982723;28;20202;-72
2021/08/11 06:56:17;;;;;;;25.63;12.15;;;;;;;18.84;83.20;102052.56;4982539;28;20085;-73
2021/08/11 06:58:45;;;;;;;25.92;13.15;;;;;;;18.71;82.45;102061.31;4983959;28;20066;-72
2021/08/11 07:01:13;;;;;;;22.55;12.38;;;;;;;18.85;81.86;102061.59;4980043;28;20085;-71
2021/08/11 07:03:41;;;;;;;27.55;13.20;;;;;;;18.83;81.98;102068.88;4982924;28;20089;-72
2021/08/11 07:06:09;;;;;;;27.27;12.07;;;;;;;19.11;81.42;102054.91;4982130;28;20065;-72
2021/08/11 07:08:37;;;;;;;26.70;12.88;;;;;;;19.13;81.23;102047.59;4982607;28;20088;-73
2021/08/11 07:11:05;;;;;;;28.63;13.15;;;;;;;19.25;79.99;102046.09;4984270;28;20320;-73
2021/08/11 07:13:34;;;;;;;30.35;12.80;;;;;;;19.20;79.78;102050.88;4980037;28;20090;-73
2021/08/11 07:16:07;;;;;;;25.77;11.80;;;;;;;19.48;79.87;102060.31;4982306;28;20150;-74
2021/08/11 07:18:35;;;;;;;25.90;12.43;;;;;;;19.18;79.19;102059.06;4981240;28;20154;-72
2021/08/11 07:21:03;;;;;;;24.33;12.68;;;;;;;18.97;79.81;102058.28;4982157;28;20457;-73
2021/08/11 07:23:31;;;;;;;26.75;11.20;;;;;;;19.22;79.47;102052.56;4983308;28;20145;-72
2021/08/11 07:25:59;;;;;;;27.98;13.38;;;;;;;19.56;78.49;102047.25;4981665;28;20374;-71
2021/08/11 07:28:27;;;;;;;25.40;10.93;;;;;;;20.33;77.38;102060.41;4980805;28;20053;-73
2021/08/11 07:30:56;;;;;;;27.25;11.65;;;;;;;20.55;75.66;102053.84;4983238;28;20089;-71
2021/08/11 07:33:24;;;;;;;26.15;12.55;;;;;;;20.48;74.90;102060.53;4980262;28;20157;-71
2021/08/11 07:35:53;;;;;;;27.58;11.38;;;;;;;20.71;74.52;102059.31;4982545;28;20069;-70
2021/08/11 07:38:21;;;;;;;27.75;11.25;;;;;;;20.53;73.64;102063.88;4983941;28;20439;-72
2021/08/11 07:40:49;;;;;;;27.30;12.02;;;;;;;20.87;73.57;102056.59;4982222;28;20121;-73
2021/08/11 07:43:16;;;;;;;23.42;11.50;;;;;;;20.68;73.05;102052.19;4979485;28;20507;-71
2021/08/11 07:45:44;;;;;;;26.42;11.57;;;;;;;20.81;72.53;102046.97;4982047;28;20054;-70
2021/08/11 07:48:31;;;;;;;24.67;12.38;;;;;;;20.79;73.01;102058.88;4983362;28;20073;-72
2021/08/11 07:50:59;;;;;;;25.40;12.05;;;;;;;20.41;73.11;102064.53;4980741;28;20071;-69
2021/08/11 07:53:27;;;;;;;24.13;10.80;;;;;;;20.29;73.86;102061.53;4982530;28;20108;-69
2021/08/11 07:55:55;;;;;;;24.75;11.90;;;;;;;20.26;73.95;102060.81;4978835;28;20066;-69
2021/08/11 07:58:24;;;;;;;25.67;11.45;;;;;;;21.22;72.04;102056.44;4980255;28;20062;-70
2021/08/11 08:00:52;;;;;;;21.92;11.68;;;;;;;21.09;70.69;102056.25;4980825;28;20066;-70
2021/08/11 08:03:20;;;;;;;22.85;11.65;;;;;;;20.57;72.31;102064.56;4981447;28;20054;-72
2021/08/11 08:05:49;;;;;;;22.30;10.75;;;;;;;20.77;71.50;102053.56;4981780;28;20495;-73
2021/08/11 08:08:17;;;;;;;22.20;10.85;;;;;;;20.13;73.00;102061.47;4982115;28;20386;-71
2021/08/11 08:10:45;;;;;;;24.02;10.85;;;;;;;20.00;73.33;102068.50;4983449;28;20062;-72
2021/08/11 08:13:13;;;;;;;19.65;10.38;;;;;;;20.31;72.45;102064.16;4978673;28;20062;-76
2021/08/11 08:15:41;;;;;;;17.02;8.57;;;;;;;21.36;71.00;102061.94;4983851;28;20089;-75
2021/08/11 08:18:08;;;;;;;23.27;9.82;;;;;;;21.47;67.51;102071.31;4980954;28;20082;-76
2021/08/11 08:20:36;;;;;;;17.67;8.40;;;;;;;22.10;65.51;102057.56;4982324;28;20062;-75
2021/08/11 08:23:05;;;;;;;16.30;9.38;;;;;;;21.88;64.47;102058.00;4982690;28;20062;-74
2021/08/11 08:25:38;;;;;;;20.33;9.45;;;;;;;22.05;65.07;102061.50;4978611;28;20148;-77
2021/08/11 08:28:05;;;;;;;16.65;8.63;;;;;;;21.66;64.00;102060.22;4979549;28;20070;-74
2021/08/11 08:30:46;;;;;;;15.18;8.77;;;;;;;21.27;66.32;102065.19;4981647;28;20073;-73
2021/08/11 08:33:14;;;;;;;14.55;8.40;;;;;;;21.52;65.33;102070.09;4981836;28;20066;-74
2021/08/11 08:35:42;;;;;;;14.23;7.22;;;;;;;21.89;65.16;102062.44;4980491;28;20062;-76
2021/08/11 08:38:12;;;;;;;19.58;8.27;;;;;;;21.72;63.11;102060.75;4982132;28;20057;-75
2021/08/11 08:40:44;;;;;;;15.48;7.50;;;;;;;21.84;63.23;102070.00;4979307;28;20066;-73
2021/08/11 08:43:11;;;;;;;15.80;8.15;;;;;;;22.23;62.66;102057.66;4980925;28;20066;-74
2021/08/11 08:45:43;;;;;;;15.07;8.60;;;;;;;21.63;61.75;102062.16;4982434;28;20362;-76
2021/08/11 08:48:11;;;;;;;15.82;8.38;;;;;;;21.91;61.79;102068.66;4979757;28;20221;-77
2021/08/11 08:50:41;;;;;;;17.05;7.88;;;;;;;22.73;60.31;102064.50;4980427;28;20291;-74
2021/08/11 08:53:12;;;;;;;17.30;8.07;;;;;;;23.10;58.74;102062.16;4982057;28;20047;-77
2021/08/11 08:55:41;;;;;;;16.42;8.48;;;;;;;23.49;58.82;102057.72;4980737;28;20385;-74
2021/08/11 08:58:09;;;;;;;14.30;7.88;;;;;;;23.74;58.66;102050.59;4979939;28;20066;-74
2021/08/11 09:00:37;;;;;;;14.27;7.38;;;;;;;23.84;56.03;102059.91;4979470;28;20074;-75
2021/08/11 09:03:05;;;;;;;14.18;7.32;;;;;;;23.65;56.61;102056.66;4979079;28;20058;-74
2021/08/11 09:05:33;;;;;;;13.73;6.78;;;;;;;23.65;57.28;102062.09;4981996;28;20100;-73
2021/08/11 09:08:01;;;;;;;12.95;6.63;;;;;;;23.07;58.00;102067.78;4981798;28;20054;-74
2021/08/11 09:10:32;;;;;;;15.27;7.97;;;;;;;22.62;58.95;102088.78;4979230;28;20066;-75
2021/08/11 09:13:07;;;;;;;18.30;7.30;;;;;;;23.47;56.72;102072.41;4980272;28;20163;-76
2021/08/11 09:15:38;;;;;;;14.40;7.18;;;;;;;24.03;56.94;102080.44;4978531;28;20062;-75
2021/08/11 09:18:12;;;;;;;14.65;7.78;;;;;;;23.40;57.54;102071.09;4980541;28;20465;-75
2021/08/11 09:20:41;;;;;;;15.48;7.35;;;;;;;23.43;56.86;102068.16;4978457;28;20442;-75
2021/08/11 09:23:09;;;;;;;12.55;7.65;;;;;;;23.32;56.60;102068.88;4983226;28;20073;-74
2021/08/11 09:25:56;;;;;;;13.02;6.97;;;;;;;23.53;55.61;102079.28;4978557;28;20066;-74
2021/08/11 09:28:24;;;;;;;11.95;6.25;;;;;;;23.54;54.00;102079.19;4983555;28;20066;-74
2021/08/11 09:30:58;;;;;;;12.15;5.82;;;;;;;24.02;54.59;102073.25;4979169;28;20069;-73
2021/08/11 09:33:26;;;;;;;12.93;6.88;;;;;;;24.02;53.39;102074.13;4979400;28;20061;-73
2021/08/11 09:35:55;;;;;;;14.57;6.78;;;;;;;23.25;55.39;102076.56;4982297;28;20116;-73
2021/08/11 09:38:22;;;;;;;12.95;6.50;;;;;;;23.20;55.95;102076.00;4977698;28;20054;-74
2021/08/11 09:40:52;;;;;;;15.63;6.38;;;;;;;22.29;57.22;102070.91;4980366;28;20062;-75
2021/08/11 09:43:32;;;;;;;13.23;5.80;;;;;;;23.00;55.94;102068.25;4975935;28;20050;-74
2021/08/11 09:46:00;;;;;;;11.20;5.22;;;;;;;23.31;54.57;102067.13;4977653;28;20076;-75
2021/08/11 09:48:42;;;;;;;10.63;4.65;;;;;;;23.31;52.57;102072.59;4976315;28;20062;-75
2021/08/11 09:51:10;;;;;;;8.77;4.43;;;;;;;23.39;53.06;102074.78;4979255;28;20058;-75
2021/08/11 09:53:40;;;;;;;10.90;5.10;;;;;;;23.91;51.68;102071.28;4976312;28;20063;-74
2021/08/11 09:56:11;;;;;;;9.15;5.38;;;;;;;24.32;50.91;102070.22;4977144;28;20101;-76
2021/08/11 09:58:40;;;;;;;10.30;4.53;;;;;;;24.59;50.68;102080.16;4981866;28;20158;-75
2021/08/11 10:01:25;;;;;;;10.63;4.68;;;;;;;23.96;52.01;102079.13;4977612;28;20062;-75
2021/08/11 10:03:56;;;;;;;10.15;4.75;;;;;;;25.01;50.31;102078.00;4974977;28;20062;-75
2021/08/11 10:06:25;;;;;;;9.75;4.93;;;;;;;24.20;48.34;102088.31;4973196;28;20062;-75
2021/08/11 10:08:53;;;;;;;10.55;5.38;;;;;;;24.26;49.91;102088.84;4980834;28;20071;-75
2021/08/11 10:11:38;;;;;;;11.48;5.90;;;;;;;24.22;51.02;102090.94;4980913;28;20062;-74
2021/08/11 10:14:09;;;;;;;12.43;5.47;;;;;;;25.02;49.90;102098.00;4975699;28;20840;-74
2021/08/11 10:16:37;;;;;;;12.93;5.97;;;;;;;25.48;50.15;102097.31;4977065;28;20069;-75
2021/08/11 10:19:07;;;;;;;11.52;5.95;;;;;;;25.51;48.85;102091.63;4976768;28;20062;-75
2021/08/11 10:21:37;;;;;;;12.40;5.25;;;;;;;25.23;48.50;102098.25;4973881;28;20357;-76
2021/08/11 10:24:06;;;;;;;11.10;5.38;;;;;;;25.42;47.96;102097.78;4977463;28;20094;-75
2021/08/11 10:26:34;;;;;;;11.95;5.80;;;;;;;26.12;48.79;102082.41;4975086;28;20258;-76
2021/08/11 10:29:06;;;;;;;11.80;5.82;;;;;;;25.47;48.93;102104.66;4979682;28;20475;-75
2021/08/11 10:31:34;;;;;;;8.90;4.85;;;;;;;25.99;48.60;102091.59;4977971;28;20140;-74
2021/08/11 10:34:03;;;;;;;11.20;5.93;;;;;;;25.87;47.20;102098.00;4975238;28;20066;-75
2021/08/11 10:36:32;;;;;;;18.45;6.75;;;;;;;25.59;47.98;102089.19;4977167;28;20063;-75
2021/08/11 10:39:01;;;;;;;12.80;6.68;;;;;;;25.22;48.86;102096.53;4975416;28;20066;-75
2021/08/11 10:41:30;;;;;;;13.50;6.15;;;;;;;25.49;48.48;102090.88;4979448;28;20062;-75
2021/08/11 10:44:00;;;;;;;10.60;6.43;;;;;;;25.14;48.70;102097.94;4973814;28;20067;-75
2021/08/11 10:46:37;;;;;;;12.57;6.28;;;;;;;25.34;49.98;102093.75;4979504;28;20538;-75
2021/08/11 10:49:06;;;;;;;13.98;6.68;;;;;;;25.09;48.98;102088.34;4978068;28;20070;-77
2021/08/11 10:51:38;;;;;;;12.75;6.05;;;;;;;25.65;48.62;102087.84;4977150;28;20408;-76
2021/08/11 10:54:07;;;;;;;12.88;6.85;;;;;;;25.18;50.17;102095.84;4980395;28;20113;-76
2021/08/11 10:56:43;;;;;;;14.10;6.18;;;;;;;25.78;48.26;102098.69;4977929;28;20089;-73
2021/08/11 10:59:45;;;;;;;10.73;6.60;;;;;;;25.73;48.28;102097.19;4978750;28;20070;-73
2021/08/11 11:02:48;;;;;;;13.00;6.85;;;;;;;26.19;47.41;102102.84;4964808;28;20073;-74
2021/08/11 11:05:36;;;;;;;;;;;;;;;25.69;48.46;102105.72;4976672;28;20076;-74
2021/08/11 11:08:31;;;;;;;11.55;6.82;;;;;;;25.23;49.15;102104.56;4977141;28;19933;-73
2021/08/11 11:11:35;;;;;;;13.60;7.03;;;;;;;25.34;48.83;102115.63;4974105;28;20389;-73
2021/08/11 11:14:04;;;;;;;13.70;6.60;;;;;;;26.00;48.19;102104.28;4977582;28;20089;-73
2021/08/11 11:17:03;;;;;;;15.75;6.75;;;;;;;25.90;48.14;102106.81;4976731;28;20046;-73
2021/08/11 11:19:33;;;;;;;12.07;6.47;;;;;;;25.64;48.12;102110.69;4968861;28;20130;-73
2021/08/11 11:22:35;;;;;;;15.75;6.45;;;;;;;25.62;48.15;102112.66;4977649;28;20062;-74